Terminal Aerodrome Forecast
Issued by NWS Rapid City, SD

Home | Current Version | Previous Version | Graphics & Text | Print | Product List | Glossary On
Versions: 1 2 3 4 5 6 7 8 9 10 11 12 13 14
000
FTUS43 KUNR 222330
TAFRAP
TAF
KRAP 222330Z 2300/2324 12011KT P6SM SCT100 BKN200
     FM230200 09010KT P6SM TSRA BKN050CB
     FM231000 VRB05KT P6SM SCT008 BKN050
     FM231500 19013KT P6SM BKN150=

USA.gov is the U.S. government's official web portal to all federal, state and local government web resources and services.